sensor_id;sensor_type;location;lat;lon;timestamp;pressure;altitude;pressure_sealevel;temperature;humidity
41044;BME280;51680;49.806;18.774;2023-03-21T00:00:36;97340.88;;;13.18;68.56
41044;BME280;51680;49.806;18.774;2023-03-21T00:03:40;97335.63;;;13.18;69.00
41044;BME280;51680;49.806;18.774;2023-03-21T00:06:42;97348.31;;;13.01;73.35
41044;BME280;51680;49.806;18.774;2023-03-21T00:09:44;97339.50;;;13.02;68.43
41044;BME280;51680;49.806;18.774;2023-03-21T00:12:46;97334.97;;;13.04;68.70
41044;BME280;51680;49.806;18.774;2023-03-21T00:15:49;97331.28;;;13.06;68.65
41044;BME280;51680;49.806;18.774;2023-03-21T00:18:55;97330.84;;;13.12;68.78
41044;BME280;51680;49.806;18.774;2023-03-21T00:21:57;97333.38;;;13.14;68.95
41044;BME280;51680;49.806;18.774;2023-03-21T00:25:01;97324.28;;;13.18;68.47
41044;BME280;51680;49.806;18.774;2023-03-21T00:28:03;97331.81;;;13.22;68.38
41044;BME280;51680;49.806;18.774;2023-03-21T00:31:05;97327.06;;;13.27;68.46
41044;BME280;51680;49.806;18.774;2023-03-21T00:34:09;97324.44;;;13.27;68.63
41044;BME280;51680;49.806;18.774;2023-03-21T00:37:11;97319.91;;;13.29;68.04
41044;BME280;51680;49.806;18.774;2023-03-21T00:40:16;97320.28;;;13.36;68.03
41044;BME280;51680;49.806;18.774;2023-03-21T00:43:18;97332.22;;;13.40;68.05
41044;BME280;51680;49.806;18.774;2023-03-21T00:46:23;97339.88;;;13.43;67.96
41044;BME280;51680;49.806;18.774;2023-03-21T00:49:27;97349.28;;;13.45;68.88
41044;BME280;51680;49.806;18.774;2023-03-21T00:52:33;97363.56;;;13.41;68.66
41044;BME280;51680;49.806;18.774;2023-03-21T00:55:34;97374.44;;;13.13;69.22
41044;BME280;51680;49.806;18.774;2023-03-21T00:58:37;97384.25;;;12.75;69.79
41044;BME280;51680;49.806;18.774;2023-03-21T01:01:39;97382.69;;;12.49;69.48
41044;BME280;51680;49.806;18.774;2023-03-21T01:04:43;97386.50;;;12.33;70.34
41044;BME280;51680;49.806;18.774;2023-03-21T01:07:44;97383.91;;;12.20;69.92
41044;BME280;51680;49.806;18.774;2023-03-21T01:10:50;97383.94;;;12.08;70.60
41044;BME280;51680;49.806;18.774;2023-03-21T01:13:53;97378.31;;;11.89;70.57
41044;BME280;51680;49.806;18.774;2023-03-21T01:16:57;97370.69;;;11.73;71.00
41044;BME280;51680;49.806;18.774;2023-03-21T01:20:00;97362.28;;;11.56;71.71
41044;BME280;51680;49.806;18.774;2023-03-21T01:23:02;97362.41;;;11.42;71.79
41044;BME280;51680;49.806;18.774;2023-03-21T01:26:04;97359.56;;;11.32;72.15
41044;BME280;51680;49.806;18.774;2023-03-21T01:29:06;97364.25;;;11.27;72.63
41044;BME280;51680;49.806;18.774;2023-03-21T01:32:08;97372.09;;;11.27;72.25
41044;BME280;51680;49.806;18.774;2023-03-21T01:35:11;97365.63;;;11.33;72.39
41044;BME280;51680;49.806;18.774;2023-03-21T01:38:13;97368.69;;;11.39;71.95
41044;BME280;51680;49.806;18.774;2023-03-21T01:41:19;97373.34;;;11.34;78.22
41044;BME280;51680;49.806;18.774;2023-03-21T01:44:22;97363.47;;;11.39;72.15
41044;BME280;51680;49.806;18.774;2023-03-21T01:47:25;97356.84;;;11.34;72.62
41044;BME280;51680;49.806;18.774;2023-03-21T01:50:39;97363.28;;;11.03;74.70
41044;BME280;51680;49.806;18.774;2023-03-21T01:53:54;97369.66;;;10.73;76.71
41044;BME280;51680;49.806;18.774;2023-03-21T01:57:00;97367.38;;;10.68;77.36
41044;BME280;51680;49.806;18.774;2023-03-21T02:00:06;97370.72;;;10.70;76.61
41044;BME280;51680;49.806;18.774;2023-03-21T02:03:22;97372.00;;;10.51;79.27
41044;BME280;51680;49.806;18.774;2023-03-21T02:06:37;97373.31;;;10.44;79.78
41044;BME280;51680;49.806;18.774;2023-03-21T02:09:57;97364.56;;;10.45;79.18
41044;BME280;51680;49.806;18.774;2023-03-21T02:13:03;97362.88;;;10.44;79.95
41044;BME280;51680;49.806;18.774;2023-03-21T02:16:13;97362.25;;;10.40;80.30
41044;BME280;51680;49.806;18.774;2023-03-21T02:20:05;97358.97;;;10.10;86.76
41044;BME280;51680;49.806;18.774;2023-03-21T02:23:32;97351.00;;;9.98;86.32
41044;BME280;51680;49.806;18.774;2023-03-21T02:26:53;97354.50;;;9.70;88.64
41044;BME280;51680;49.806;18.774;2023-03-21T02:30:29;97344.28;;;9.53;90.32
41044;BME280;51680;49.806;18.774;2023-03-21T02:37:21;97329.44;;;9.40;91.23
41044;BME280;51680;49.806;18.774;2023-03-21T02:40:29;97334.19;;;9.47;88.82
41044;BME280;51680;49.806;18.774;2023-03-21T02:43:38;97341.47;;;9.56;88.16
41044;BME280;51680;49.806;18.774;2023-03-21T02:46:45;97340.19;;;9.63;87.27
41044;BME280;51680;49.806;18.774;2023-03-21T02:49:53;97338.84;;;9.70;86.58
41044;BME280;51680;49.806;18.774;2023-03-21T02:52:58;97341.75;;;9.66;88.15
41044;BME280;51680;49.806;18.774;2023-03-21T02:56:06;97330.47;;;9.65;87.14
41044;BME280;51680;49.806;18.774;2023-03-21T02:59:13;97339.22;;;9.64;87.69
41044;BME280;51680;49.806;18.774;2023-03-21T03:02:20;97334.97;;;9.63;87.38
41044;BME280;51680;49.806;18.774;2023-03-21T03:05:25;97342.41;;;9.69;86.56
41044;BME280;51680;49.806;18.774;2023-03-21T03:08:34;97337.19;;;9.69;86.81
41044;BME280;51680;49.806;18.774;2023-03-21T03:11:43;97336.25;;;9.70;86.71
41044;BME280;51680;49.806;18.774;2023-03-21T03:14:50;97347.34;;;9.60;87.72
41044;BME280;51680;49.806;18.774;2023-03-21T03:17:59;97339.22;;;9.50;88.13
41044;BME280;51680;49.806;18.774;2023-03-21T03:21:08;97339.97;;;9.52;88.16
41044;BME280;51680;49.806;18.774;2023-03-21T03:24:17;97331.25;;;9.67;86.05
41044;BME280;51680;49.806;18.774;2023-03-21T03:27:24;97332.91;;;9.82;84.63
41044;BME280;51680;49.806;18.774;2023-03-21T03:30:48;97334.41;;;9.86;84.43
41044;BME280;51680;49.806;18.774;2023-03-21T03:33:54;97328.25;;;9.87;84.60
41044;BME280;51680;49.806;18.774;2023-03-21T03:37:02;97332.34;;;9.91;84.04
41044;BME280;51680;49.806;18.774;2023-03-21T03:40:12;97326.50;;;10.00;83.65
41044;BME280;51680;49.806;18.774;2023-03-21T03:43:26;97338.56;;;10.03;83.70
41044;BME280;51680;49.806;18.774;2023-03-21T03:46:33;97330.16;;;9.98;84.54
41044;BME280;51680;49.806;18.774;2023-03-21T03:49:42;97328.78;;;9.92;85.39
41044;BME280;51680;49.806;18.774;2023-03-21T03:52:50;97331.84;;;9.99;84.24
41044;BME280;51680;49.806;18.774;2023-03-21T03:55:55;97330.91;;;10.00;84.04
41044;BME280;51680;49.806;18.774;2023-03-21T03:58:57;97338.66;;;10.01;84.37
41044;BME280;51680;49.806;18.774;2023-03-21T04:02:18;97331.72;;;10.00;83.90
41044;BME280;51680;49.806;18.774;2023-03-21T04:05:20;97330.91;;;10.00;84.44
41044;BME280;51680;49.806;18.774;2023-03-21T04:08:23;97333.06;;;10.07;83.63
41044;BME280;51680;49.806;18.774;2023-03-21T04:11:31;97335.94;;;10.03;84.54
41044;BME280;51680;49.806;18.774;2023-03-21T04:14:32;97338.47;;;10.04;84.07
41044;BME280;51680;49.806;18.774;2023-03-21T04:17:38;97340.16;;;10.05;84.78
41044;BME280;51680;49.806;18.774;2023-03-21T04:20:40;97339.97;;;10.08;83.70
41044;BME280;51680;49.806;18.774;2023-03-21T04:23:44;97343.09;;;10.13;83.58
41044;BME280;51680;49.806;18.774;2023-03-21T04:26:48;97334.16;;;10.17;83.05
41044;BME280;51680;49.806;18.774;2023-03-21T04:30:09;97327.06;;;10.19;82.94
41044;BME280;51680;49.806;18.774;2023-03-21T04:33:21;97315.50;;;10.23;82.40
41044;BME280;51680;49.806;18.774;2023-03-21T04:36:28;97324.09;;;10.25;82.50
41044;BME280;51680;49.806;18.774;2023-03-21T04:39:40;97317.38;;;10.21;83.23
41044;BME280;51680;49.806;18.774;2023-03-21T04:42:44;97322.06;;;10.16;83.52
41044;BME280;51680;49.806;18.774;2023-03-21T04:45:46;97311.91;;;10.12;83.78
41044;BME280;51680;49.806;18.774;2023-03-21T04:48:48;97317.66;;;10.17;83.09
41044;BME280;51680;49.806;18.774;2023-03-21T04:51:50;97318.50;;;10.17;82.98
41044;BME280;51680;49.806;18.774;2023-03-21T04:54:53;97316.75;;;10.18;83.35
41044;BME280;51680;49.806;18.774;2023-03-21T04:57:58;97319.06;;;10.22;82.81
41044;BME280;51680;49.806;18.774;2023-03-21T05:01:00;97333.72;;;10.11;87.38
41044;BME280;51680;49.806;18.774;2023-03-21T05:04:05;97330.28;;;10.10;83.79
41044;BME280;51680;49.806;18.774;2023-03-21T05:07:08;97329.88;;;10.16;82.97
41044;BME280;51680;49.806;18.774;2023-03-21T05:10:11;97321.25;;;10.28;81.87
41044;BME280;51680;49.806;18.774;2023-03-21T05:13:16;97332.09;;;10.22;86.90
41044;BME280;51680;49.806;18.774;2023-03-21T05:16:17;97331.69;;;10.28;82.01
41044;BME280;51680;49.806;18.774;2023-03-21T05:19:21;97331.03;;;10.39;81.55
41044;BME280;51680;49.806;18.774;2023-03-21T05:22:24;97326.16;;;10.47;81.35
41044;BME280;51680;49.806;18.774;2023-03-21T05:25:29;97326.59;;;10.53;80.85
41044;BME280;51680;49.806;18.774;2023-03-21T05:28:57;97329.44;;;10.63;80.48
41044;BME280;51680;49.806;18.774;2023-03-21T05:32:00;97329.34;;;10.64;80.91
41044;BME280;51680;49.806;18.774;2023-03-21T05:35:02;97328.94;;;10.70;80.96
41044;BME280;51680;49.806;18.774;2023-03-21T05:38:04;97326.13;;;10.73;80.20
41044;BME280;51680;49.806;18.774;2023-03-21T05:41:24;97336.25;;;10.78;80.21
41044;BME280;51680;49.806;18.774;2023-03-21T05:44:27;97338.06;;;10.77;80.81
41044;BME280;51680;49.806;18.774;2023-03-21T05:47:30;97332.84;;;10.77;81.36
41044;BME280;51680;49.806;18.774;2023-03-21T05:50:33;97341.56;;;10.64;85.08
41044;BME280;51680;49.806;18.774;2023-03-21T05:53:49;97344.59;;;10.70;81.49
41044;BME280;51680;49.806;18.774;2023-03-21T05:56:51;97339.19;;;10.73;80.85
41044;BME280;51680;49.806;18.774;2023-03-21T06:00:05;97328.53;;;10.76;81.06
41044;BME280;51680;49.806;18.774;2023-03-21T06:03:16;97338.88;;;10.78;81.12
41044;BME280;51680;49.806;18.774;2023-03-21T06:06:32;97332.94;;;10.76;81.80
41044;BME280;51680;49.806;18.774;2023-03-21T06:09:35;97340.69;;;10.77;82.45
41044;BME280;51680;49.806;18.774;2023-03-21T06:12:37;97335.97;;;10.82;82.32
41044;BME280;51680;49.806;18.774;2023-03-21T06:15:51;97340.34;;;10.82;83.28
41044;BME280;51680;49.806;18.774;2023-03-21T06:18:57;97346.72;;;10.78;83.54
41044;BME280;51680;49.806;18.774;2023-03-21T06:22:10;97339.84;;;10.89;83.29
41044;BME280;51680;49.806;18.774;2023-03-21T06:25:14;97341.44;;;11.04;82.97
41044;BME280;51680;49.806;18.774;2023-03-21T06:28:16;97337.19;;;11.16;81.61
41044;BME280;51680;49.806;18.774;2023-03-21T06:31:20;97341.38;;;11.43;80.59
41044;BME280;51680;49.806;18.774;2023-03-21T06:34:25;97338.69;;;11.82;79.15
41044;BME280;51680;49.806;18.774;2023-03-21T06:37:27;97337.69;;;12.32;78.06
41044;BME280;51680;49.806;18.774;2023-03-21T06:40:29;97328.22;;;12.89;75.82
41044;BME280;51680;49.806;18.774;2023-03-21T06:43:31;97324.94;;;13.54;73.87
41044;BME280;51680;49.806;18.774;2023-03-21T06:46:37;97320.91;;;15.01;69.75
41044;BME280;51680;49.806;18.774;2023-03-21T06:49:39;97323.81;;;15.60;67.39
41044;BME280;51680;49.806;18.774;2023-03-21T06:52:44;97324.63;;;16.20;65.73
41044;BME280;51680;49.806;18.774;2023-03-21T06:55:48;97329.09;;;16.29;65.14
41044;BME280;51680;49.806;18.774;2023-03-21T06:58:50;97337.25;;;15.87;65.48
41044;BME280;51680;49.806;18.774;2023-03-21T07:15:25;97345.78;;;16.39;65.59
41044;BME280;51680;49.806;18.774;2023-03-21T07:18:27;97360.88;;;16.07;66.26
41044;BME280;51680;49.806;18.774;2023-03-21T07:21:30;97353.47;;;15.62;67.10
41044;BME280;51680;49.806;18.774;2023-03-21T07:24:32;97360.59;;;15.19;68.20
41044;BME280;51680;49.806;18.774;2023-03-21T07:27:34;97366.00;;;14.86;69.23
41044;BME280;51680;49.806;18.774;2023-03-21T07:30:37;97368.38;;;14.57;70.02
41044;BME280;51680;49.806;18.774;2023-03-21T07:33:39;97368.66;;;14.32;70.98
41044;BME280;51680;49.806;18.774;2023-03-21T07:36:41;97363.63;;;14.29;71.25
41044;BME280;51680;49.806;18.774;2023-03-21T07:39:43;97364.84;;;14.25;71.59
41044;BME280;51680;49.806;18.774;2023-03-21T07:42:47;97364.81;;;14.14;71.73
41044;BME280;51680;49.806;18.774;2023-03-21T07:45:57;97369.13;;;14.04;72.24
41044;BME280;51680;49.806;18.774;2023-03-21T07:49:00;97366.72;;;14.01;72.19
41044;BME280;51680;49.806;18.774;2023-03-21T07:52:04;97372.44;;;13.95;72.73
41044;BME280;51680;49.806;18.774;2023-03-21T07:55:08;97382.25;;;13.93;72.84
41044;BME280;51680;49.806;18.774;2023-03-21T07:58:09;97386.16;;;13.99;73.06
41044;BME280;51680;49.806;18.774;2023-03-21T08:01:13;97378.78;;;14.04;72.79
41044;BME280;51680;49.806;18.774;2023-03-21T08:04:14;97381.41;;;14.04;72.84
41044;BME280;51680;49.806;18.774;2023-03-21T08:07:35;97382.34;;;14.03;72.61
41044;BME280;51680;49.806;18.774;2023-03-21T08:10:37;97390.72;;;13.97;72.67
41044;BME280;51680;49.806;18.774;2023-03-21T08:13:39;97387.25;;;13.96;72.82
41044;BME280;51680;49.806;18.774;2023-03-21T08:16:42;97391.78;;;13.94;73.35
41044;BME280;51680;49.806;18.774;2023-03-21T08:19:43;97393.09;;;13.89;73.42
41044;BME280;51680;49.806;18.774;2023-03-21T08:22:46;97400.38;;;13.85;73.68
41044;BME280;51680;49.806;18.774;2023-03-21T08:25:50;97393.91;;;13.78;73.98
41044;BME280;51680;49.806;18.774;2023-03-21T08:28:52;97394.16;;;13.75;74.05
41044;BME280;51680;49.806;18.774;2023-03-21T08:31:55;97392.13;;;13.68;74.36
41044;BME280;51680;49.806;18.774;2023-03-21T08:34:58;97391.75;;;13.61;74.61
41044;BME280;51680;49.806;18.774;2023-03-21T08:38:03;97401.00;;;13.54;74.73
41044;BME280;51680;49.806;18.774;2023-03-21T08:41:06;97400.28;;;13.41;74.99
41044;BME280;51680;49.806;18.774;2023-03-21T08:44:09;97401.19;;;13.29;75.02
41044;BME280;51680;49.806;18.774;2023-03-21T08:47:12;97403.56;;;13.21;75.34
41044;BME280;51680;49.806;18.774;2023-03-21T08:50:15;97424.06;;;13.04;79.22
41044;BME280;51680;49.806;18.774;2023-03-21T08:53:17;97420.53;;;13.05;75.33
41044;BME280;51680;49.806;18.774;2023-03-21T08:56:19;97418.97;;;13.02;75.46
41044;BME280;51680;49.806;18.774;2023-03-21T08:59:21;97415.84;;;12.97;75.94
41044;BME280;51680;49.806;18.774;2023-03-21T09:02:24;97422.50;;;13.01;75.57
41044;BME280;51680;49.806;18.774;2023-03-21T09:05:26;97423.47;;;13.00;75.66
41044;BME280;51680;49.806;18.774;2023-03-21T09:08:28;97429.31;;;13.04;75.82
41044;BME280;51680;49.806;18.774;2023-03-21T09:11:30;97422.09;;;13.07;75.81
41044;BME280;51680;49.806;18.774;2023-03-21T09:14:32;97429.59;;;13.12;75.57
41044;BME280;51680;49.806;18.774;2023-03-21T09:17:35;97430.22;;;13.15;75.72
41044;BME280;51680;49.806;18.774;2023-03-21T09:20:42;97429.53;;;13.24;75.53
41044;BME280;51680;49.806;18.774;2023-03-21T09:23:45;97433.38;;;13.31;75.64
41044;BME280;51680;49.806;18.774;2023-03-21T09:26:48;97421.47;;;13.38;75.35
41044;BME280;51680;49.806;18.774;2023-03-21T09:29:50;97423.53;;;13.46;75.69
41044;BME280;51680;49.806;18.774;2023-03-21T09:32:54;97424.19;;;13.60;75.20
41044;BME280;51680;49.806;18.774;2023-03-21T09:35:57;97427.66;;;13.72;75.22
41044;BME280;51680;49.806;18.774;2023-03-21T09:38:59;97424.47;;;13.79;74.69
41044;BME280;51680;49.806;18.774;2023-03-21T09:42:12;97427.56;;;13.84;75.37
41044;BME280;51680;49.806;18.774;2023-03-21T09:45:22;97425.31;;;13.91;74.72
41044;BME280;51680;49.806;18.774;2023-03-21T09:48:33;97432.34;;;14.01;74.91
41044;BME280;51680;49.806;18.774;2023-03-21T09:51:39;97428.75;;;14.02;73.98
41044;BME280;51680;49.806;18.774;2023-03-21T09:54:43;97431.84;;;13.96;74.23
41044;BME280;51680;49.806;18.774;2023-03-21T09:57:48;97433.78;;;13.83;74.29
41044;BME280;51680;49.806;18.774;2023-03-21T10:00:58;97434.22;;;13.77;75.14
41044;BME280;51680;49.806;18.774;2023-03-21T10:04:07;97434.22;;;13.77;74.74
41044;BME280;51680;49.806;18.774;2023-03-21T10:07:12;97431.84;;;13.74;74.91
41044;BME280;51680;49.806;18.774;2023-03-21T10:10:40;97427.41;;;13.64;74.68
41044;BME280;51680;49.806;18.774;2023-03-21T10:13:48;97424.75;;;13.53;74.76
41044;BME280;51680;49.806;18.774;2023-03-21T10:16:55;97428.78;;;13.46;74.89
41044;BME280;51680;49.806;18.774;2023-03-21T10:20:07;97426.50;;;13.41;75.87
41044;BME280;51680;49.806;18.774;2023-03-21T10:23:14;97435.34;;;13.40;75.00
41044;BME280;51680;49.806;18.774;2023-03-21T10:26:18;97426.94;;;13.35;75.11
41044;BME280;51680;49.806;18.774;2023-03-21T10:29:21;97438.50;;;13.33;78.78
41044;BME280;51680;49.806;18.774;2023-03-21T10:32:24;97427.72;;;13.48;75.00
41044;BME280;51680;49.806;18.774;2023-03-21T10:35:27;97428.25;;;13.64;74.81
41044;BME280;51680;49.806;18.774;2023-03-21T10:38:31;97423.28;;;13.83;74.30
41044;BME280;51680;49.806;18.774;2023-03-21T10:41:33;97417.06;;;13.95;73.11
41044;BME280;51680;49.806;18.774;2023-03-21T10:44:35;97412.53;;;13.97;72.33
41044;BME280;51680;49.806;18.774;2023-03-21T10:47:37;97423.97;;;13.96;72.28
41044;BME280;51680;49.806;18.774;2023-03-21T10:50:41;97418.41;;;14.01;72.03
41044;BME280;51680;49.806;18.774;2023-03-21T10:53:45;97424.25;;;14.04;71.57
41044;BME280;51680;49.806;18.774;2023-03-21T10:56:55;97427.09;;;14.01;71.31
41044;BME280;51680;49.806;18.774;2023-03-21T10:59:59;97432.59;;;13.98;70.60
41044;BME280;51680;49.806;18.774;2023-03-21T11:03:18;97426.75;;;14.06;71.26
41044;BME280;51680;49.806;18.774;2023-03-21T11:06:26;97428.41;;;14.07;71.12
41044;BME280;51680;49.806;18.774;2023-03-21T11:09:43;97433.31;;;14.11;71.34
41044;BME280;51680;49.806;18.774;2023-03-21T11:12:47;97420.44;;;14.19;70.16
41044;BME280;51680;49.806;18.774;2023-03-21T11:15:52;97426.06;;;14.26;70.06
41044;BME280;51680;49.806;18.774;2023-03-21T11:19:00;97420.91;;;14.35;70.19
41044;BME280;51680;49.806;18.774;2023-03-21T11:22:06;97417.38;;;14.36;69.73
41044;BME280;51680;49.806;18.774;2023-03-21T11:25:09;97420.66;;;14.49;69.62
41044;BME280;51680;49.806;18.774;2023-03-21T11:28:18;97422.84;;;14.55;69.44
41044;BME280;51680;49.806;18.774;2023-03-21T11:31:21;97427.34;;;14.64;69.35
41044;BME280;51680;49.806;18.774;2023-03-21T11:34:27;97413.47;;;14.73;68.89
41044;BME280;51680;49.806;18.774;2023-03-21T11:37:33;97412.53;;;14.74;68.36
41044;BME280;51680;49.806;18.774;2023-03-21T11:40:51;97411.06;;;14.81;69.54
41044;BME280;51680;49.806;18.774;2023-03-21T11:43:53;97407.69;;;14.90;69.20
41044;BME280;51680;49.806;18.774;2023-03-21T11:46:55;97406.97;;;14.99;68.46
41044;BME280;51680;49.806;18.774;2023-03-21T11:49:57;97407.94;;;14.98;68.85
41044;BME280;51680;49.806;18.774;2023-03-21T11:53:25;97407.94;;;14.98;69.02
41044;BME280;51680;49.806;18.774;2023-03-21T11:56:33;97407.69;;;14.90;68.85
41044;BME280;51680;49.806;18.774;2023-03-21T11:59:43;97408.44;;;14.81;69.07
41044;BME280;51680;49.806;18.774;2023-03-21T12:03:04;97398.63;;;14.83;69.45
41044;BME280;51680;49.806;18.774;2023-03-21T12:06:13;97395.81;;;14.75;70.72
41044;BME280;51680;49.806;18.774;2023-03-21T12:09:28;97395.75;;;14.86;69.54
41044;BME280;51680;49.806;18.774;2023-03-21T12:12:43;97391.81;;;14.81;69.37
41044;BME280;51680;49.806;18.774;2023-03-21T12:15:54;97392.44;;;14.84;69.80
41044;BME280;51680;49.806;18.774;2023-03-21T12:19:07;97384.28;;;14.87;69.18
41044;BME280;51680;49.806;18.774;2023-03-21T12:22:16;97383.81;;;14.82;69.42
41044;BME280;51680;49.806;18.774;2023-03-21T12:25:27;97383.13;;;14.80;69.88
41044;BME280;51680;49.806;18.774;2023-03-21T12:28:40;97381.94;;;14.73;70.29
41044;BME280;51680;49.806;18.774;2023-03-21T12:32:00;97383.81;;;14.82;70.27
41044;BME280;51680;49.806;18.774;2023-03-21T12:35:21;97379.03;;;14.87;69.88
41044;BME280;51680;49.806;18.774;2023-03-21T12:38:36;97373.66;;;14.89;68.98
41044;BME280;51680;49.806;18.774;2023-03-21T12:41:43;97368.38;;;14.89;68.79
41044;BME280;51680;49.806;18.774;2023-03-21T12:44:48;97372.81;;;14.88;68.93
41044;BME280;51680;49.806;18.774;2023-03-21T12:47:54;97372.00;;;14.88;68.39
41044;BME280;51680;49.806;18.774;2023-03-21T12:50:59;97358.03;;;14.76;68.03
41044;BME280;51680;49.806;18.774;2023-03-21T12:54:08;97363.53;;;14.73;68.25
41044;BME280;51680;49.806;18.774;2023-03-21T12:57:17;97359.25;;;14.72;67.32
41044;BME280;51680;49.806;18.774;2023-03-21T13:00:24;97364.16;;;14.66;66.82
41044;BME280;51680;49.806;18.774;2023-03-21T13:03:30;97351.38;;;14.72;66.29
41044;BME280;51680;49.806;18.774;2023-03-21T13:06:33;97347.47;;;14.87;66.05
41044;BME280;51680;49.806;18.774;2023-03-21T13:09:37;97355.81;;;15.03;65.37
41044;BME280;51680;49.806;18.774;2023-03-21T13:13:00;97350.28;;;15.06;65.12
41044;BME280;51680;49.806;18.774;2023-03-21T13:16:09;97346.28;;;14.91;65.56
41044;BME280;51680;49.806;18.774;2023-03-21T13:19:18;97353.94;;;14.94;66.18
41044;BME280;51680;49.806;18.774;2023-03-21T13:36:24;97324.81;;;15.98;62.11
41044;BME280;51680;49.806;18.774;2023-03-21T13:39:28;97332.03;;;15.46;63.28
41044;BME280;51680;49.806;18.774;2023-03-21T13:42:31;97340.97;;;15.02;64.96
41044;BME280;51680;49.806;18.774;2023-03-21T13:45:44;97337.94;;;14.86;65.42
41044;BME280;51680;49.806;18.774;2023-03-21T13:48:55;97333.44;;;14.77;66.01
41044;BME280;51680;49.806;18.774;2023-03-21T13:52:00;97333.94;;;14.71;66.18
41044;BME280;51680;49.806;18.774;2023-03-21T13:55:14;97338.00;;;14.64;66.07
41044;BME280;51680;49.806;18.774;2023-03-21T13:58:30;97337.81;;;14.56;66.35
41044;BME280;51680;49.806;18.774;2023-03-21T14:01:38;97339.25;;;14.49;66.58
41044;BME280;51680;49.806;18.774;2023-03-21T14:04:42;97333.63;;;14.43;67.05
41044;BME280;51680;49.806;18.774;2023-03-21T14:07:47;97334.25;;;14.46;67.09
41044;BME280;51680;49.806;18.774;2023-03-21T14:10:53;97336.03;;;14.46;66.89
41044;BME280;51680;49.806;18.774;2023-03-21T14:13:57;97335.91;;;14.47;67.01
41044;BME280;51680;49.806;18.774;2023-03-21T14:16:59;97326.94;;;14.50;67.17
41044;BME280;51680;49.806;18.774;2023-03-21T14:20:10;97327.59;;;14.31;67.17
41044;BME280;51680;49.806;18.774;2023-03-21T14:23:15;97335.72;;;14.17;67.75
41044;BME280;51680;49.806;18.774;2023-03-21T14:26:18;97325.56;;;14.13;68.12
41044;BME280;51680;49.806;18.774;2023-03-21T14:29:24;97325.44;;;14.14;68.16
41044;BME280;51680;49.806;18.774;2023-03-21T14:32:28;97329.25;;;14.21;68.25
41044;BME280;51680;49.806;18.774;2023-03-21T14:35:31;97326.53;;;14.23;67.94
41044;BME280;51680;49.806;18.774;2023-03-21T14:38:37;97316.59;;;14.15;67.89
41044;BME280;51680;49.806;18.774;2023-03-21T14:41:44;97314.22;;;14.12;68.11
41044;BME280;51680;49.806;18.774;2023-03-21T14:44:47;97318.06;;;14.08;68.01
41044;BME280;51680;49.806;18.774;2023-03-21T14:47:54;97314.34;;;14.00;68.47
41044;BME280;51680;49.806;18.774;2023-03-21T14:50:57;97312.31;;;13.92;68.25
41044;BME280;51680;49.806;18.774;2023-03-21T14:54:03;97313.53;;;13.88;68.73
41044;BME280;51680;49.806;18.774;2023-03-21T14:57:09;97315.22;;;13.89;68.52
41044;BME280;51680;49.806;18.774;2023-03-21T15:00:21;97321.63;;;13.96;68.39
41044;BME280;51680;49.806;18.774;2023-03-21T15:03:23;97314.97;;;14.03;67.87
41044;BME280;51680;49.806;18.774;2023-03-21T15:06:27;97316.38;;;14.07;67.61
41044;BME280;51680;49.806;18.774;2023-03-21T15:09:31;97312.53;;;14.11;67.30
41044;BME280;51680;49.806;18.774;2023-03-21T15:12:34;97309.22;;;14.09;66.97
41044;BME280;51680;49.806;18.774;2023-03-21T15:15:35;97308.50;;;14.07;67.32
41044;BME280;51680;49.806;18.774;2023-03-21T15:18:39;97302.88;;;14.12;66.78
41044;BME280;51680;49.806;18.774;2023-03-21T15:21:43;97304.56;;;14.13;66.58
41044;BME280;51680;49.806;18.774;2023-03-21T15:24:49;97292.84;;;14.17;66.21
41044;BME280;51680;49.806;18.774;2023-03-21T15:27:53;97287.47;;;14.18;66.14
41044;BME280;51680;49.806;18.774;2023-03-21T15:30:55;97293.47;;;14.20;66.04
41044;BME280;51680;49.806;18.774;2023-03-21T15:33:57;97285.22;;;14.14;66.13
41044;BME280;51680;49.806;18.774;2023-03-21T15:37:03;97290.00;;;14.09;65.93
41044;BME280;51680;49.806;18.774;2023-03-21T15:40:12;97291.56;;;14.00;66.62
41044;BME280;51680;49.806;18.774;2023-03-21T15:43:18;97297.41;;;13.93;66.61
41044;BME280;51680;49.806;18.774;2023-03-21T15:46:31;97290.16;;;13.85;67.15
41044;BME280;51680;49.806;18.774;2023-03-21T15:49:39;97294.19;;;13.78;67.46
41044;BME280;51680;49.806;18.774;2023-03-21T15:52:41;97289.69;;;13.69;67.17
41044;BME280;51680;49.806;18.774;2023-03-21T15:55:46;97294.31;;;13.66;67.07
41044;BME280;51680;49.806;18.774;2023-03-21T15:58:51;97294.56;;;13.63;67.15
41044;BME280;51680;49.806;18.774;2023-03-21T16:01:53;97297.31;;;13.61;67.15
41044;BME280;51680;49.806;18.774;2023-03-21T16:04:57;97285.38;;;13.57;66.70
41044;BME280;51680;49.806;18.774;2023-03-21T16:08:03;97292.78;;;13.52;67.09
41044;BME280;51680;49.806;18.774;2023-03-21T16:11:15;97286.81;;;13.50;67.27
41044;BME280;51680;49.806;18.774;2023-03-21T16:14:17;97292.19;;;13.49;67.31
41044;BME280;51680;49.806;18.774;2023-03-21T16:17:26;97300.66;;;13.52;67.51
41044;BME280;51680;49.806;18.774;2023-03-21T16:20:33;97301.50;;;13.53;67.64
41044;BME280;51680;49.806;18.774;2023-03-21T16:23:35;97304.56;;;13.47;67.78
41044;BME280;51680;49.806;18.774;2023-03-21T16:26:41;97308.03;;;13.36;67.90
41044;BME280;51680;49.806;18.774;2023-03-21T16:29:45;97305.41;;;13.36;68.26
41044;BME280;51680;49.806;18.774;2023-03-21T16:33:06;97306.97;;;13.39;68.01
41044;BME280;51680;49.806;18.774;2023-03-21T16:36:12;97300.16;;;13.36;68.06
41044;BME280;51680;49.806;18.774;2023-03-21T16:39:17;97308.25;;;13.33;68.48
41044;BME280;51680;49.806;18.774;2023-03-21T16:42:20;97307.66;;;13.30;68.52
41044;BME280;51680;49.806;18.774;2023-03-21T16:45:22;97310.38;;;13.28;68.67